createdAt,value
2022-11-14T00:01:16.199Z,7.1
2022-11-14T00:04:16.206Z,7.1
2022-11-14T00:07:16.238Z,7.1
2022-11-14T00:10:16.201Z,7.1
2022-11-14T00:13:16.206Z,7
2022-11-14T00:16:16.202Z,7
2022-11-14T00:19:16.199Z,7
2022-11-14T00:22:16.198Z,7
2022-11-14T00:25:16.195Z,6.9
2022-11-14T00:28:16.192Z,6.9
2022-11-14T00:31:16.190Z,6.9
2022-11-14T00:34:16.189Z,6.9
2022-11-14T00:37:16.193Z,6.9
2022-11-14T00:40:16.190Z,6.9
2022-11-14T00:43:16.182Z,6.9
2022-11-14T00:46:16.184Z,6.9
2022-11-14T00:49:16.185Z,6.8
2022-11-14T00:52:16.181Z,6.8
2022-11-14T00:55:16.179Z,6.8
2022-11-14T00:58:16.186Z,6.8
2022-11-14T01:01:16.216Z,6.8
2022-11-14T01:04:16.176Z,6.8
2022-11-14T01:07:16.173Z,6.8
2022-11-14T01:10:16.176Z,6.8
2022-11-14T01:13:16.180Z,6.7
2022-11-14T01:16:16.175Z,6.7
2022-11-14T01:19:16.173Z,6.7
2022-11-14T01:22:16.173Z,6.7
2022-11-14T01:25:16.178Z,6.7
2022-11-14T01:28:16.161Z,6.7
2022-11-14T01:31:16.163Z,6.7
2022-11-14T01:34:16.167Z,6.7
2022-11-14T01:37:16.172Z,6.7
2022-11-14T01:40:16.170Z,6.7
2022-11-14T01:43:16.170Z,6.6
2022-11-14T01:46:16.161Z,6.6
2022-11-14T01:49:16.159Z,6.6
2022-11-14T01:52:16.160Z,6.6
2022-11-14T01:55:16.163Z,6.6
2022-11-14T01:58:16.159Z,6.6
2022-11-14T02:01:16.265Z,6.6
2022-11-14T02:04:16.152Z,6.6
2022-11-14T02:07:16.201Z,6.5
2022-11-14T02:10:16.159Z,6.5
2022-11-14T02:13:16.166Z,6.5
2022-11-14T02:16:16.156Z,6.5
2022-11-14T02:19:16.157Z,6.5
2022-11-14T02:22:16.149Z,6.5
2022-11-14T02:25:16.153Z,6.5
2022-11-14T02:28:16.152Z,6.5
2022-11-14T02:31:16.152Z,6.5
2022-11-14T02:34:16.153Z,6.5
2022-11-14T02:37:16.148Z,6.4
2022-11-14T02:40:16.147Z,6.4
2022-11-14T02:43:16.142Z,6.4
2022-11-14T02:46:16.146Z,6.4
2022-11-14T02:49:16.148Z,6.4
2022-11-14T02:52:16.136Z,6.4
2022-11-14T02:55:16.151Z,6.4
2022-11-14T02:58:16.149Z,6.4
2022-11-14T03:01:21.109Z,6.4
2022-11-14T03:04:16.140Z,6.3
2022-11-14T03:07:16.241Z,6.3
2022-11-14T03:10:16.137Z,6.3
2022-11-14T03:13:16.137Z,6.3
2022-11-14T03:16:16.139Z,6.3
2022-11-14T03:19:16.147Z,6.3
2022-11-14T03:22:16.138Z,6.2
2022-11-14T03:25:16.141Z,6.2
2022-11-14T03:28:16.139Z,6.2
2022-11-14T03:31:16.140Z,6.2
2022-11-14T03:34:16.136Z,6.2
2022-11-14T03:37:16.129Z,6.2
2022-11-14T03:40:16.137Z,6.2
2022-11-14T03:43:16.131Z,6.2
2022-11-14T03:46:16.130Z,6.2
2022-11-14T03:49:16.132Z,6.1
2022-11-14T03:52:16.125Z,6.1
2022-11-14T03:55:16.135Z,6.1
2022-11-14T03:58:16.122Z,6.1
2022-11-14T04:01:16.163Z,6.1
2022-11-14T04:04:16.129Z,6.1
2022-11-14T04:07:16.213Z,6.1
2022-11-14T04:10:16.125Z,6.1
2022-11-14T04:13:16.121Z,6.1
2022-11-14T04:16:16.124Z,6
2022-11-14T04:19:16.115Z,6
2022-11-14T04:22:16.115Z,6
2022-11-14T04:25:16.109Z,6
2022-11-14T04:28:16.116Z,6
2022-11-14T04:31:16.107Z,6
2022-11-14T04:34:16.123Z,5.9
2022-11-14T04:37:16.113Z,5.9
2022-11-14T04:40:16.113Z,5.9
2022-11-14T04:43:16.129Z,5.9
2022-11-14T04:46:16.108Z,5.9
2022-11-14T04:49:16.100Z,5.9
2022-11-14T04:52:16.104Z,5.9
2022-11-14T04:55:16.090Z,5.9
2022-11-14T04:58:16.102Z,5.9
2022-11-14T05:01:16.147Z,5.9
2022-11-14T05:04:16.093Z,5.9
2022-11-14T05:07:16.137Z,5.9
2022-11-14T05:13:16.089Z,5.9
2022-11-14T05:16:16.084Z,6
2022-11-14T05:22:16.085Z,6
2022-11-14T05:25:16.088Z,6
2022-11-14T05:28:16.094Z,6
2022-11-14T05:31:16.078Z,6.1
2022-11-14T05:34:16.076Z,6.1
2022-11-14T05:37:16.225Z,6.1
2022-11-14T05:40:16.090Z,6.1
2022-11-14T05:43:16.091Z,6.1
2022-11-14T05:46:16.089Z,6.2
2022-11-14T05:49:20.700Z,6.2
2022-11-14T05:52:16.082Z,6.2
2022-11-14T05:55:18.338Z,6.2
2022-11-14T05:58:16.078Z,6.2
2022-11-14T06:01:16.080Z,6.2
2022-11-14T06:04:16.073Z,6.2
2022-11-14T06:07:19.851Z,6.2
2022-11-14T06:10:16.072Z,6.2
2022-11-14T06:13:16.082Z,6.2
2022-11-14T06:16:16.084Z,6.3
2022-11-14T06:19:16.066Z,6.3
2022-11-14T06:22:16.070Z,6.3
2022-11-14T06:25:16.069Z,6.3
2022-11-14T06:28:16.069Z,6.3
2022-11-14T06:31:16.073Z,6.3
2022-11-14T06:34:16.067Z,6.4
2022-11-14T06:37:16.071Z,6.4
2022-11-14T06:40:16.069Z,6.4
2022-11-14T06:43:16.073Z,6.4
2022-11-14T06:46:16.075Z,6.4
2022-11-14T06:49:16.069Z,6.4
2022-11-14T06:52:16.061Z,6.5
2022-11-14T06:55:18.628Z,6.5
2022-11-14T06:58:16.071Z,6.5
2022-11-14T07:01:16.197Z,6.5
2022-11-14T07:04:16.060Z,6.6
2022-11-14T07:07:16.139Z,6.6
2022-11-14T07:10:16.065Z,6.6
2022-11-14T07:13:16.063Z,6.6
2022-11-14T07:16:16.062Z,6.6
2022-11-14T07:19:16.064Z,6.7
2022-11-14T07:22:16.057Z,6.7
2022-11-14T07:25:16.057Z,6.7
2022-11-14T07:28:16.059Z,6.7
2022-11-14T07:31:16.057Z,6.7
2022-11-14T07:34:16.053Z,6.7
2022-11-14T07:37:16.051Z,6.8
2022-11-14T07:40:16.060Z,6.8
2022-11-14T07:43:16.044Z,6.8
2022-11-14T07:46:16.103Z,6.8
2022-11-14T07:49:16.046Z,6.8
2022-11-14T07:52:16.042Z,6.8
2022-11-14T07:55:16.047Z,6.8
2022-11-14T07:58:16.047Z,6.8
2022-11-14T08:01:16.065Z,6.8
2022-11-14T08:04:16.044Z,6.9
2022-11-14T08:07:16.086Z,6.9
2022-11-14T08:10:16.038Z,6.9
2022-11-14T08:13:31.363Z,6.9
2022-11-14T08:16:16.047Z,6.9
2022-11-14T08:19:16.040Z,6.9
2022-11-14T08:22:16.036Z,6.9
2022-11-14T08:25:16.041Z,6.9
2022-11-14T08:28:16.044Z,7
2022-11-14T08:31:16.053Z,7
2022-11-14T08:37:16.050Z,7
2022-11-14T08:40:16.040Z,7
2022-11-14T08:43:16.084Z,7
2022-11-14T08:46:16.117Z,7
2022-11-14T08:49:16.099Z,7
2022-11-14T08:52:16.939Z,7.1
2022-11-14T08:55:16.099Z,7.1
2022-11-14T08:58:16.087Z,7.1
2022-11-14T09:01:16.120Z,7.1
2022-11-14T09:04:16.127Z,7.1
2022-11-14T09:07:16.189Z,7.1
2022-11-14T09:10:16.101Z,7.1
2022-11-14T09:13:16.089Z,7.1
2022-11-14T09:16:16.080Z,7.1
2022-11-14T09:19:16.084Z,7.2
2022-11-14T09:22:16.082Z,7.2
2022-11-14T09:25:16.084Z,7.2
2022-11-14T09:28:16.195Z,7.2
2022-11-14T09:31:16.189Z,7.2
2022-11-14T09:34:16.188Z,7.2
2022-11-14T09:37:16.181Z,7.2
2022-11-14T09:40:16.183Z,7.2
2022-11-14T09:43:16.182Z,7.2
2022-11-14T09:46:16.179Z,7.3
2022-11-14T09:49:16.189Z,7.3
2022-11-14T09:52:16.171Z,7.3
2022-11-14T09:55:16.174Z,7.3
2022-11-14T09:58:16.179Z,7.3
2022-11-14T10:01:16.206Z,7.3
2022-11-14T10:04:16.166Z,7.4
2022-11-14T10:07:16.244Z,7.4
2022-11-14T10:10:16.172Z,7.4
2022-11-14T10:13:16.178Z,7.4
2022-11-14T10:16:16.172Z,7.4
2022-11-14T10:22:16.163Z,7.5
2022-11-14T10:25:16.160Z,7.5
2022-11-14T10:28:16.159Z,7.6
2022-11-14T10:31:16.264Z,7.6
2022-11-14T10:34:16.281Z,7.6
2022-11-14T10:37:16.272Z,7.7
2022-11-14T10:40:16.274Z,7.7
2022-11-14T10:43:16.279Z,7.7
2022-11-14T10:46:16.274Z,7.7
2022-11-14T10:49:16.266Z,7.8
2022-11-14T10:52:16.275Z,7.8
2022-11-14T10:55:16.256Z,7.8
2022-11-14T10:58:16.258Z,7.8
2022-11-14T11:01:16.328Z,7.9
2022-11-14T11:04:16.294Z,7.9
2022-11-14T11:10:16.251Z,7.9
2022-11-14T11:13:16.303Z,8
2022-11-14T11:16:16.303Z,8
2022-11-14T11:19:16.304Z,8.1
2022-11-14T11:22:16.299Z,8.1
2022-11-14T11:25:16.389Z,8.1
2022-11-14T11:31:16.299Z,8.2
2022-11-14T11:34:16.298Z,8.2
2022-11-14T11:37:16.320Z,8.3
2022-11-14T11:40:16.289Z,8.3
2022-11-14T11:46:16.296Z,8.3
2022-11-14T11:49:16.304Z,8.4
2022-11-14T11:52:16.285Z,8.4
2022-11-14T11:55:16.335Z,8.4
2022-11-14T11:58:16.356Z,8.4
2022-11-14T12:01:16.345Z,8.4
2022-11-14T12:04:16.393Z,8.5
2022-11-14T12:07:16.397Z,8.6
2022-11-14T12:10:16.438Z,8.6
2022-11-14T12:13:16.334Z,8.6
2022-11-14T12:16:16.327Z,8.7
2022-11-14T12:19:16.345Z,8.7
2022-11-14T12:22:16.333Z,8.9
2022-11-14T12:25:16.320Z,8.9
2022-11-14T12:28:16.329Z,9
2022-11-14T12:31:16.326Z,9
2022-11-14T12:34:16.408Z,9
2022-11-14T12:37:16.345Z,9
2022-11-14T12:40:16.332Z,9
2022-11-14T12:43:16.332Z,9.1
2022-11-14T12:46:16.328Z,9.1
2022-11-14T12:49:16.339Z,9.1
2022-11-14T12:55:16.321Z,9.1
2022-11-14T12:58:16.312Z,9.2
2022-11-14T13:01:16.379Z,9.2
2022-11-14T13:04:16.338Z,9.2
2022-11-14T13:07:16.455Z,9.2
2022-11-14T13:10:16.320Z,9.2
2022-11-14T13:13:16.330Z,9.2
2022-11-14T13:16:16.316Z,9.2
2022-11-14T13:19:16.338Z,9.2
2022-11-14T13:22:16.339Z,9.2
2022-11-14T13:25:16.347Z,9.2
2022-11-14T13:28:24.328Z,9.2
2022-11-14T13:31:16.332Z,9.2
2022-11-14T13:34:16.336Z,9.2
2022-11-14T13:37:16.330Z,9.2
2022-11-14T13:40:16.488Z,9.2
2022-11-14T13:43:16.337Z,9.2
2022-11-14T13:46:16.327Z,9.2
2022-11-14T13:49:16.336Z,9.2
2022-11-14T13:52:16.341Z,9.2
2022-11-14T13:55:16.324Z,9.3
2022-11-14T13:58:16.323Z,9.3
2022-11-14T14:01:16.364Z,9.3
2022-11-14T14:04:16.319Z,9.3
2022-11-14T14:07:16.360Z,9.3
2022-11-14T14:10:16.321Z,9.3
2022-11-14T14:13:16.319Z,9.3
2022-11-14T14:16:16.322Z,9.3
2022-11-14T14:19:16.328Z,9.3
2022-11-14T14:22:16.309Z,9.3
2022-11-14T14:25:16.309Z,9.3
2022-11-14T14:28:16.330Z,9.3
2022-11-14T14:31:16.308Z,9.3
2022-11-14T14:40:16.303Z,9.3
2022-11-14T14:43:16.313Z,9.3
2022-11-14T14:46:16.308Z,9.3
2022-11-14T14:49:16.321Z,9.3
2022-11-14T14:52:16.312Z,9.4
2022-11-14T14:55:16.315Z,9.4
2022-11-14T14:58:21.130Z,12.95
2022-11-14T15:01:16.354Z,12.95
2022-11-14T15:04:16.300Z,12.95
2022-11-14T15:07:16.349Z,12.95
2022-11-14T15:10:16.302Z,12.95
2022-11-14T15:13:16.279Z,12.95
2022-11-14T15:16:16.291Z,12.95
2022-11-14T15:19:16.279Z,12.95
2022-11-14T15:22:16.283Z,12.95
2022-11-14T15:25:16.579Z,13
2022-11-14T15:28:16.435Z,13
2022-11-14T15:31:16.438Z,13
2022-11-14T15:34:16.439Z,13
2022-11-14T15:42:48.581Z,13.05
2022-11-14T15:45:48.496Z,13.05
2022-11-14T15:48:48.513Z,13.05
2022-11-14T15:51:48.498Z,13.05
2022-11-14T15:54:48.500Z,13.05
2022-11-14T15:58:00.844Z,13.05
2022-11-14T16:00:48.510Z,13.05
2022-11-14T16:03:48.496Z,13.05
2022-11-14T16:06:48.607Z,13.05
2022-11-14T16:09:48.503Z,13.05
2022-11-14T16:12:52.339Z,13.05
2022-11-14T16:15:48.492Z,13.05
2022-11-14T16:18:48.489Z,13.05
2022-11-14T16:21:48.535Z,13.05
2022-11-14T16:24:48.504Z,13.05
2022-11-14T16:27:48.490Z,13.05
2022-11-14T16:30:48.488Z,13.05
2022-11-14T16:36:48.496Z,13.05
2022-11-14T16:39:48.492Z,13.05
2022-11-14T16:42:48.485Z,9.6
2022-11-14T16:45:48.500Z,9.6
2022-11-14T16:48:48.481Z,9.6
2022-11-14T16:51:49.562Z,9.6
2022-11-14T16:54:48.509Z,9.6
2022-11-14T16:57:48.501Z,9.6
2022-11-14T17:00:48.502Z,9.5
2022-11-14T17:03:48.505Z,9.5
2022-11-14T17:06:48.583Z,9.6
2022-11-14T17:09:48.497Z,9.6
2022-11-14T17:12:48.499Z,9.6
2022-11-14T17:15:48.497Z,9.6
2022-11-14T17:18:48.493Z,9.6
2022-11-14T17:21:48.507Z,9.6
2022-11-14T17:24:48.599Z,9.6
2022-11-14T17:27:48.494Z,9.7
2022-11-14T17:30:48.533Z,9.7
2022-11-14T17:33:48.494Z,9.7
2022-11-14T17:36:48.489Z,9.7
2022-11-14T17:39:48.498Z,9.7
2022-11-14T17:42:48.497Z,9.7
2022-11-14T17:45:48.488Z,9.7
2022-11-14T17:48:48.486Z,9.7
2022-11-14T17:51:48.512Z,9.7
2022-11-14T17:54:48.496Z,9.8
2022-11-14T17:57:48.485Z,9.8
2022-11-14T18:00:48.497Z,9.8
2022-11-14T18:03:48.485Z,9.8
2022-11-14T18:06:48.544Z,9.8
2022-11-14T18:09:48.483Z,9.8
2022-11-14T18:12:48.484Z,9.8
2022-11-14T18:15:48.478Z,9.9
2022-11-14T18:18:48.485Z,9.9
2022-11-14T18:21:52.280Z,9.9
2022-11-14T18:24:48.463Z,9.9
2022-11-14T18:27:48.477Z,9.9
2022-11-14T18:30:50.715Z,9.9
2022-11-14T18:33:48.486Z,9.9
2022-11-14T18:36:48.466Z,9.9
2022-11-14T18:39:48.572Z,9.9
2022-11-14T18:42:48.460Z,9.9
2022-11-14T18:45:48.473Z,9.9
2022-11-14T18:48:48.471Z,9.9
2022-11-14T18:51:48.470Z,9.9
2022-11-14T18:54:48.470Z,9.9
2022-11-14T18:57:48.474Z,9.9
2022-11-14T19:03:48.458Z,9.9
2022-11-14T19:06:48.494Z,9.9
2022-11-14T19:12:48.465Z,9.9
2022-11-14T19:15:48.462Z,10
2022-11-14T19:18:48.446Z,10
2022-11-14T19:24:48.492Z,10
2022-11-14T19:27:48.463Z,9.9
2022-11-14T19:30:48.451Z,9.9
2022-11-14T19:33:48.474Z,9.9
2022-11-14T19:36:59.704Z,9.9
2022-11-14T19:39:48.451Z,10
2022-11-14T19:42:48.450Z,10
2022-11-14T19:45:48.470Z,10
2022-11-14T19:48:48.445Z,10
2022-11-14T19:51:48.465Z,10
2022-11-14T19:54:48.446Z,10
2022-11-14T19:57:48.451Z,10
2022-11-14T20:00:48.447Z,10
2022-11-14T20:03:48.449Z,10
2022-11-14T20:06:48.489Z,10
2022-11-14T20:09:48.447Z,10
2022-11-14T20:12:48.436Z,10
2022-11-14T20:15:48.445Z,10
2022-11-14T20:18:48.456Z,10
2022-11-14T20:21:48.429Z,10
2022-11-14T20:24:48.440Z,10
2022-11-14T20:27:48.441Z,9.9
2022-11-14T20:30:48.426Z,9.9
2022-11-14T20:33:48.425Z,9.9
2022-11-14T20:37:10.250Z,9.9
2022-11-14T20:39:48.428Z,9.9
2022-11-14T20:42:48.521Z,9.9
2022-11-14T20:45:48.796Z,9.8
2022-11-14T20:48:48.440Z,9.8
2022-11-14T20:51:48.430Z,9.8
2022-11-14T20:54:48.427Z,9.7
2022-11-14T20:57:48.421Z,9.7
2022-11-14T21:00:48.431Z,9.6
2022-11-14T21:03:48.424Z,9.6
2022-11-14T21:06:48.434Z,9.6
2022-11-14T21:09:48.424Z,9.6
2022-11-14T21:12:49.562Z,9.6
2022-11-14T21:15:48.427Z,9.5
2022-11-14T21:18:48.520Z,9.5
2022-11-14T21:21:48.417Z,9.5
2022-11-14T21:24:48.408Z,9.5
2022-11-14T21:27:48.422Z,9.4
2022-11-14T21:30:48.417Z,9.4
2022-11-14T21:33:48.421Z,9.4
2022-11-14T21:36:48.448Z,9.4
2022-11-14T21:39:48.436Z,9.3
2022-11-14T21:42:48.418Z,9.3
2022-11-14T21:45:48.418Z,9.3
2022-11-14T21:48:48.417Z,9.3
2022-11-14T21:51:48.420Z,9.3
2022-11-14T21:54:48.409Z,9.3
2022-11-14T21:57:48.408Z,9.3
2022-11-14T22:00:48.411Z,9.3
2022-11-14T22:03:48.410Z,9.3
2022-11-14T22:09:48.433Z,9.3
2022-11-14T22:12:48.412Z,9.3
2022-11-14T22:15:48.418Z,9.3
2022-11-14T22:18:48.409Z,9.3
2022-11-14T22:21:48.413Z,9.3
2022-11-14T22:24:48.416Z,9.3
2022-11-14T22:27:48.420Z,9.3
2022-11-14T22:30:48.401Z,9.3
2022-11-14T22:33:48.412Z,9.4
2022-11-14T22:36:48.406Z,9.4
2022-11-14T22:39:48.416Z,9.4
2022-11-14T22:42:48.406Z,9.4
2022-11-14T22:45:48.392Z,9.4
2022-11-14T22:48:48.395Z,9.4
2022-11-14T22:51:48.405Z,9.4
2022-11-14T22:54:48.434Z,9.4
2022-11-14T22:57:48.404Z,9.4
2022-11-14T23:00:48.399Z,9.4
2022-11-14T23:03:48.471Z,9.4
2022-11-14T23:06:48.438Z,9.4
2022-11-14T23:09:48.394Z,9.4
2022-11-14T23:12:48.379Z,9.4
2022-11-14T23:15:48.390Z,9.4
2022-11-14T23:18:48.398Z,9.3
2022-11-14T23:21:48.375Z,9.3
2022-11-14T23:24:48.389Z,9.3
2022-11-14T23:27:48.394Z,9.3
2022-11-14T23:30:48.382Z,9.3
2022-11-14T23:33:48.389Z,9.2
2022-11-14T23:36:48.380Z,9.2
2022-11-14T23:39:48.380Z,9.2
2022-11-14T23:42:48.393Z,9.2
2022-11-14T23:45:48.390Z,9.1
2022-11-14T23:48:48.366Z,9.1
2022-11-14T23:51:48.375Z,9.1
2022-11-14T23:54:48.373Z,9.1
2022-11-14T23:57:48.380Z,9.1
